createdAt,value
2024-01-03T00:00:35.295Z,922.1
2024-01-03T00:01:36.253Z,922.19
2024-01-03T00:02:36.707Z,922.18
2024-01-03T00:03:37.050Z,922.17
2024-01-03T00:04:38.023Z,922.24
2024-01-03T00:05:38.859Z,922.19
2024-01-03T00:06:39.047Z,922.32
2024-01-03T00:07:39.876Z,922.31
2024-01-03T00:08:40.610Z,922.31
2024-01-03T00:09:41.104Z,922.44
2024-01-03T00:10:42.193Z,922.43
2024-01-03T00:11:43.225Z,922.55
2024-01-03T00:12:43.572Z,922.57
2024-01-03T00:13:44.356Z,922.47
2024-01-03T00:14:45.307Z,922.56
2024-01-03T00:15:45.670Z,922.59
2024-01-03T00:16:46.679Z,922.57
2024-01-03T00:17:46.934Z,922.52
2024-01-03T00:18:47.359Z,922.52
2024-01-03T00:19:47.382Z,922.55
2024-01-03T00:20:48.135Z,922.47
2024-01-03T00:21:48.497Z,922.5
2024-01-03T00:22:49.207Z,922.45
2024-01-03T00:23:49.437Z,922.6
2024-01-03T00:24:49.727Z,922.59
2024-01-03T00:25:50.762Z,922.57
2024-01-03T00:26:51.468Z,922.45
2024-01-03T00:27:51.891Z,922.51
2024-01-03T00:28:52.682Z,922.56
2024-01-03T00:29:53.343Z,922.45
2024-01-03T00:30:53.517Z,922.67
2024-01-03T00:31:54.113Z,922.71
2024-01-03T00:32:58.042Z,922.47
2024-01-03T00:33:54.973Z,922.43
2024-01-03T00:34:55.160Z,922.54
2024-01-03T00:35:56.226Z,922.55
2024-01-03T00:36:56.625Z,922.46
2024-01-03T00:37:57.459Z,922.46
2024-01-03T00:38:57.866Z,922.49
2024-01-03T00:39:58.287Z,922.45
2024-01-03T00:40:59.256Z,922.57
2024-01-03T00:42:00.101Z,922.66
2024-01-03T00:43:00.915Z,922.69
2024-01-03T00:44:01.879Z,922.68
2024-01-03T00:45:02.210Z,922.75
2024-01-03T00:46:02.189Z,922.88
2024-01-03T00:47:02.883Z,922.74
2024-01-03T00:48:03.175Z,922.85
2024-01-03T00:49:03.711Z,922.9
2024-01-03T00:50:04.122Z,922.89
2024-01-03T00:51:04.936Z,922.86
2024-01-03T00:52:05.651Z,923.03
2024-01-03T00:53:06.259Z,922.89
2024-01-03T00:54:06.528Z,922.95
2024-01-03T00:55:07.038Z,922.95
2024-01-03T00:56:07.542Z,922.85
2024-01-03T00:57:08.372Z,922.93
2024-01-03T00:58:09.634Z,922.83
2024-01-03T00:59:09.581Z,922.99
2024-01-03T01:00:10.515Z,922.89
2024-01-03T01:01:11.342Z,922.93
2024-01-03T01:02:11.856Z,923.05
2024-01-03T01:03:12.318Z,923.12
2024-01-03T01:04:12.659Z,923.06
2024-01-03T01:05:13.302Z,923.13
2024-01-03T01:06:13.937Z,923.02
2024-01-03T01:07:14.009Z,923.19
2024-01-03T01:08:16.138Z,923.17
2024-01-03T01:09:15.688Z,923.29
2024-01-03T01:10:16.045Z,923.27
2024-01-03T01:11:16.559Z,923.1
2024-01-03T01:12:17.137Z,923.2
2024-01-03T01:13:18.049Z,922.91
2024-01-03T01:14:18.585Z,922.99
2024-01-03T01:15:19.506Z,923.06
2024-01-03T01:16:20.471Z,923.16
2024-01-03T01:17:21.253Z,923.15
2024-01-03T01:18:21.905Z,923.02
2024-01-03T01:19:22.777Z,922.99
2024-01-03T01:20:23.645Z,922.92
2024-01-03T01:21:24.685Z,922.97
2024-01-03T01:22:25.188Z,922.86
2024-01-03T01:23:26.159Z,922.79
2024-01-03T01:24:27.206Z,922.88
2024-01-03T01:25:27.943Z,922.99
2024-01-03T01:26:28.468Z,922.99
2024-01-03T01:27:29.322Z,922.99
2024-01-03T01:28:29.513Z,923.01
2024-01-03T01:29:30.433Z,923.03
2024-01-03T01:30:31.433Z,922.98
2024-01-03T01:31:31.559Z,922.91
2024-01-03T01:32:32.554Z,923.03
2024-01-03T01:33:33.027Z,923.03
2024-01-03T01:34:33.568Z,922.97
2024-01-03T01:35:33.779Z,922.9
2024-01-03T01:36:34.564Z,922.97
2024-01-03T01:37:35.340Z,923.04
2024-01-03T01:38:36.313Z,923.05
2024-01-03T01:39:36.445Z,922.96
2024-01-03T01:40:37.613Z,922.97
2024-01-03T01:41:38.435Z,923.03
2024-01-03T01:42:39.313Z,922.92
2024-01-03T01:43:40.067Z,923.02
2024-01-03T01:44:40.886Z,923.11
2024-01-03T01:45:41.955Z,923.13
2024-01-03T01:46:42.969Z,923.07
2024-01-03T01:47:44.189Z,922.93
2024-01-03T01:48:44.426Z,923.24
2024-01-03T01:49:45.136Z,923.19
2024-01-03T01:50:46.066Z,923.19
2024-01-03T01:51:46.689Z,923.19
2024-01-03T01:52:47.474Z,922.96
2024-01-03T01:53:48.082Z,922.99
2024-01-03T01:54:48.585Z,923.15
2024-01-03T01:55:49.494Z,923.05
2024-01-03T01:56:50.115Z,923.1
2024-01-03T01:57:50.320Z,923.07
2024-01-03T01:58:50.722Z,923.19
2024-01-03T01:59:50.685Z,923.06
2024-01-03T02:00:50.985Z,923.05
2024-01-03T02:01:51.911Z,923.02
2024-01-03T02:02:52.701Z,923.14
2024-01-03T02:03:53.043Z,923.12
2024-01-03T02:04:53.332Z,923.08
2024-01-03T02:05:54.410Z,923.08
2024-01-03T02:06:55.465Z,923.16
2024-01-03T02:07:56.404Z,923.13
2024-01-03T02:08:57.031Z,923.11
2024-01-03T02:09:57.942Z,923.16
2024-01-03T02:10:58.162Z,923.13
2024-01-03T02:11:58.920Z,923.11
2024-01-03T02:12:59.120Z,923.04
2024-01-03T02:13:59.808Z,923.16
2024-01-03T02:15:00.037Z,923.13
2024-01-03T02:16:01.014Z,922.98
2024-01-03T02:17:01.587Z,923.14
2024-01-03T02:18:02.298Z,923.08
2024-01-03T02:19:02.410Z,923.11
2024-01-03T02:20:02.559Z,923.02
2024-01-03T02:21:03.016Z,923
2024-01-03T02:22:03.971Z,923.09
2024-01-03T02:23:04.082Z,923.05
2024-01-03T02:24:04.459Z,923.12
2024-01-03T02:25:05.209Z,923.04
2024-01-03T02:26:10.403Z,923.03
2024-01-03T02:27:06.332Z,922.9
2024-01-03T02:28:07.312Z,922.94
2024-01-03T02:29:07.667Z,922.97
2024-01-03T02:30:07.784Z,922.89
2024-01-03T02:31:08.833Z,922.99
2024-01-03T02:32:09.536Z,923.07
2024-01-03T02:33:10.264Z,923.04
2024-01-03T02:34:11.065Z,923.15
2024-01-03T02:35:11.774Z,923.23
2024-01-03T02:36:12.827Z,923.28
2024-01-03T02:37:13.353Z,923.29
2024-01-03T02:38:14.130Z,923.3
2024-01-03T02:39:14.826Z,923.37
2024-01-03T02:40:15.528Z,923.41
2024-01-03T02:41:16.553Z,923.48
2024-01-03T02:42:17.326Z,923.47
2024-01-03T02:43:18.054Z,923.45
2024-01-03T02:44:18.867Z,923.45
2024-01-03T02:45:19.221Z,923.38
2024-01-03T02:46:20.154Z,923.08
2024-01-03T02:47:21.141Z,923.2
2024-01-03T02:48:22.278Z,923.25
2024-01-03T02:49:23.264Z,923.16
2024-01-03T02:50:23.606Z,923.17
2024-01-03T02:51:24.608Z,923.03
2024-01-03T02:52:25.300Z,923
2024-01-03T02:53:26.124Z,922.86
2024-01-03T02:54:27.169Z,923.03
2024-01-03T02:55:27.901Z,922.96
2024-01-03T02:56:28.428Z,922.94
2024-01-03T02:57:29.179Z,922.97
2024-01-03T02:58:30.209Z,923.11
2024-01-03T02:59:31.211Z,923
2024-01-03T03:00:32.170Z,923.12
2024-01-03T03:01:33.017Z,922.94
2024-01-03T03:02:33.179Z,923.01
2024-01-03T03:03:33.524Z,923.04
2024-01-03T03:04:33.711Z,923.2
2024-01-03T03:05:34.219Z,923.18
2024-01-03T03:06:35.127Z,923.15
2024-01-03T03:07:35.505Z,923.32
2024-01-03T03:08:36.282Z,923.33
2024-01-03T03:09:36.457Z,923.37
2024-01-03T03:10:37.075Z,923.29
2024-01-03T03:11:37.714Z,923.1
2024-01-03T03:12:37.895Z,923.15
2024-01-03T03:13:38.830Z,923.3
2024-01-03T03:14:39.337Z,923.31
2024-01-03T03:15:40.380Z,923.2
2024-01-03T03:16:41.278Z,923.28
2024-01-03T03:17:42.383Z,923.18
2024-01-03T03:18:43.079Z,923.28
2024-01-03T03:19:44.030Z,923.32
2024-01-03T03:20:44.809Z,923.38
2024-01-03T03:21:44.950Z,923.24
2024-01-03T03:22:45.667Z,923.38
2024-01-03T03:23:45.831Z,923.03
2024-01-03T03:24:46.008Z,923.3
2024-01-03T03:25:46.938Z,923.18
2024-01-03T03:26:47.539Z,923.15
2024-01-03T03:27:47.806Z,923.25
2024-01-03T03:28:48.763Z,923.4
2024-01-03T03:29:49.468Z,923.12
2024-01-03T03:30:49.691Z,923.3
2024-01-03T03:31:50.653Z,923.41
2024-01-03T03:32:51.419Z,923.22
2024-01-03T03:33:52.059Z,923.22
2024-01-03T03:34:51.973Z,923.23
2024-01-03T03:35:52.900Z,923.16
2024-01-03T03:36:53.987Z,923.15
2024-01-03T03:37:54.900Z,923.13
2024-01-03T03:38:55.098Z,923.14
2024-01-03T03:39:55.243Z,923.24
2024-01-03T03:40:55.989Z,923.15
2024-01-03T03:41:56.437Z,923.24
2024-01-03T03:42:56.543Z,923.12
2024-01-03T03:43:57.448Z,923.23
2024-01-03T03:44:58.358Z,923.36
2024-01-03T03:45:59.232Z,923.28
2024-01-03T03:46:59.953Z,923.3
2024-01-03T03:48:00.341Z,923.35
2024-01-03T03:49:00.985Z,923.31
2024-01-03T03:50:01.645Z,923.37
2024-01-03T03:51:02.331Z,923.29
2024-01-03T03:52:02.975Z,923.15
2024-01-03T03:53:03.502Z,923.15
2024-01-03T03:54:04.275Z,923.24
2024-01-03T03:55:04.845Z,923.36
2024-01-03T03:56:05.407Z,923.3
2024-01-03T03:57:06.175Z,923.34
2024-01-03T03:58:07.413Z,923.27
2024-01-03T03:59:07.663Z,923.29
2024-01-03T04:00:08.039Z,923.2
2024-01-03T04:01:07.962Z,923.12
2024-01-03T04:02:08.358Z,923.18
2024-01-03T04:03:09.191Z,923.22
2024-01-03T04:04:10.127Z,923.09
2024-01-03T04:05:11.177Z,923.06
2024-01-03T04:06:11.678Z,923.12
2024-01-03T04:07:11.983Z,923.13
2024-01-03T04:08:12.749Z,923.16
2024-01-03T04:09:12.983Z,923.22
2024-01-03T04:10:13.906Z,923.19
2024-01-03T04:11:14.839Z,923.33
2024-01-03T04:12:15.769Z,923.36
2024-01-03T04:13:16.404Z,923.27
2024-01-03T04:14:17.144Z,923.26
2024-01-03T04:15:18.183Z,923.16
2024-01-03T04:16:18.541Z,923.16
2024-01-03T04:17:19.324Z,923.13
2024-01-03T04:18:19.841Z,923.1
2024-01-03T04:19:20.913Z,923.21
2024-01-03T04:20:21.147Z,923.18
2024-01-03T04:21:21.945Z,923.15
2024-01-03T04:22:22.955Z,923.16
2024-01-03T04:23:23.705Z,923.18
2024-01-03T04:24:24.009Z,923.22
2024-01-03T04:25:24.797Z,923.17
2024-01-03T04:26:24.964Z,923.25
2024-01-03T04:27:25.096Z,923.3
2024-01-03T04:28:26.003Z,923.4
2024-01-03T04:29:26.426Z,923.47
2024-01-03T04:30:27.156Z,923.61
2024-01-03T04:31:28.601Z,923.5
2024-01-03T04:32:27.971Z,923.52
2024-01-03T04:33:28.912Z,923.49
2024-01-03T04:34:29.800Z,923.41
2024-01-03T04:35:30.263Z,923.36
2024-01-03T04:36:30.525Z,923.35
2024-01-03T04:37:31.056Z,923.4
2024-01-03T04:38:31.579Z,923.43
2024-01-03T04:39:32.500Z,923.36
2024-01-03T04:40:33.221Z,923.31
2024-01-03T04:41:33.638Z,923.46
2024-01-03T04:42:34.509Z,923.49
2024-01-03T04:43:34.618Z,923.5
2024-01-03T04:44:35.515Z,923.44
2024-01-03T04:45:36.527Z,923.34
2024-01-03T04:46:36.635Z,923.39
2024-01-03T04:47:37.247Z,923.38
2024-01-03T04:48:37.751Z,923.27
2024-01-03T04:49:38.409Z,923.25
2024-01-03T04:50:38.701Z,923.23
2024-01-03T04:51:39.626Z,923.29
2024-01-03T04:52:40.074Z,923.36
2024-01-03T04:53:41.010Z,923.29
2024-01-03T04:54:41.250Z,923.23
2024-01-03T04:55:42.005Z,923.23
2024-01-03T04:56:43.002Z,923.3
2024-01-03T04:57:43.178Z,923.33
2024-01-03T04:58:43.288Z,923.4
2024-01-03T04:59:44.024Z,923.37
2024-01-03T05:00:45.262Z,923.4
2024-01-03T05:01:45.421Z,923.42
2024-01-03T05:02:46.143Z,923.46
2024-01-03T05:03:46.812Z,923.47
2024-01-03T05:04:47.077Z,923.46
2024-01-03T05:05:48.102Z,923.48
2024-01-03T05:06:48.605Z,923.52
2024-01-03T05:07:49.137Z,923.57
2024-01-03T05:08:49.419Z,923.61
2024-01-03T05:09:49.690Z,923.59
2024-01-03T05:10:50.437Z,923.64
2024-01-03T05:11:51.172Z,923.68
2024-01-03T05:12:51.384Z,923.64
2024-01-03T05:13:52.110Z,923.68
2024-01-03T05:14:52.711Z,923.73
2024-01-03T05:15:53.612Z,923.73
2024-01-03T05:16:54.524Z,923.62
2024-01-03T05:17:55.581Z,923.59
2024-01-03T05:18:56.512Z,923.61
2024-01-03T05:19:56.866Z,923.6
2024-01-03T05:20:57.146Z,923.65
2024-01-03T05:21:58.066Z,923.78
2024-01-03T05:22:58.502Z,923.77
2024-01-03T05:23:59.301Z,923.74
2024-01-03T05:24:59.855Z,923.78
2024-01-03T05:26:00.651Z,923.7
2024-01-03T05:27:01.119Z,923.72
2024-01-03T05:28:02.038Z,923.79
2024-01-03T05:29:02.441Z,923.82
2024-01-03T05:30:03.585Z,923.86
2024-01-03T05:31:04.166Z,923.94
2024-01-03T05:32:04.395Z,923.96
2024-01-03T05:33:04.950Z,924.01
2024-01-03T05:34:05.464Z,923.95
2024-01-03T05:35:06.429Z,923.85
2024-01-03T05:36:06.969Z,923.98
2024-01-03T05:37:08.004Z,923.96
2024-01-03T05:38:09.200Z,923.94
2024-01-03T05:39:09.817Z,923.94
2024-01-03T05:40:10.798Z,923.86
2024-01-03T05:41:11.306Z,923.79
2024-01-03T05:42:12.398Z,923.77
2024-01-03T05:43:12.814Z,923.78
2024-01-03T05:44:13.732Z,923.8
2024-01-03T05:45:13.940Z,923.71
2024-01-03T05:46:14.518Z,923.77
2024-01-03T05:47:15.098Z,923.77
2024-01-03T05:48:15.509Z,923.76
2024-01-03T05:49:16.413Z,923.77
2024-01-03T05:50:16.914Z,923.78
2024-01-03T05:51:17.904Z,923.73
2024-01-03T05:52:18.016Z,923.72
2024-01-03T05:53:18.679Z,923.63
2024-01-03T05:54:18.834Z,923.63
2024-01-03T05:55:19.341Z,923.62
2024-01-03T05:56:19.868Z,923.56
2024-01-03T05:57:20.529Z,923.52
2024-01-03T05:58:21.505Z,923.4
2024-01-03T05:59:22.375Z,923.4
2024-01-03T06:00:23.204Z,923.37
2024-01-03T06:01:24.204Z,923.27
2024-01-03T06:02:24.345Z,923.31
2024-01-03T06:03:24.928Z,923.39
2024-01-03T06:04:25.730Z,923.34
2024-01-03T06:05:25.901Z,923.37
2024-01-03T06:06:26.315Z,923.48
2024-01-03T06:07:27.040Z,923.54
2024-01-03T06:08:27.177Z,923.59
2024-01-03T06:09:27.314Z,923.66
2024-01-03T06:10:27.436Z,923.69
2024-01-03T06:11:28.054Z,923.81
2024-01-03T06:12:28.549Z,923.86
2024-01-03T06:13:29.345Z,924.03
2024-01-03T06:14:29.913Z,924.15
2024-01-03T06:15:30.838Z,924.25
2024-01-03T06:16:31.769Z,924.28
2024-01-03T06:17:32.551Z,924.36
2024-01-03T06:18:32.988Z,924.4
2024-01-03T06:19:33.564Z,924.34
2024-01-03T06:20:34.319Z,924.21
2024-01-03T06:21:34.609Z,924.18
2024-01-03T06:22:35.413Z,924.07
2024-01-03T06:23:35.777Z,923.93
2024-01-03T06:24:36.285Z,923.87
2024-01-03T06:25:37.009Z,923.8
2024-01-03T06:26:37.620Z,923.81
2024-01-03T06:27:38.654Z,923.85
2024-01-03T06:28:39.570Z,923.84
2024-01-03T06:29:41.313Z,923.83
2024-01-03T06:30:40.500Z,923.87
2024-01-03T06:31:40.622Z,923.92
2024-01-03T06:32:41.634Z,923.85
2024-01-03T06:33:42.176Z,923.86
2024-01-03T06:34:43.089Z,923.84
2024-01-03T06:35:43.927Z,923.85
2024-01-03T06:36:44.052Z,923.85
2024-01-03T06:37:44.800Z,923.77
2024-01-03T06:38:45.557Z,923.81
2024-01-03T06:39:46.001Z,923.84
2024-01-03T06:40:46.600Z,923.85
2024-01-03T06:41:47.428Z,923.9
2024-01-03T06:42:47.528Z,923.97
2024-01-03T06:43:47.951Z,924.01
2024-01-03T06:44:49.032Z,924.05
2024-01-03T06:45:49.495Z,924.14
2024-01-03T06:46:49.844Z,924.04
2024-01-03T06:47:50.867Z,924.11
2024-01-03T06:48:51.811Z,924.16
2024-01-03T06:49:52.671Z,924.16
2024-01-03T06:50:53.010Z,924.25
2024-01-03T06:51:53.610Z,924.23
2024-01-03T06:52:54.278Z,924.11
2024-01-03T06:53:54.940Z,924.07
2024-01-03T06:54:55.861Z,924.05
2024-01-03T06:55:58.861Z,924.12
2024-01-03T06:56:57.240Z,924.29
2024-01-03T06:57:58.164Z,924.43
2024-01-03T06:58:59.029Z,924.6
2024-01-03T07:00:00.019Z,924.7
2024-01-03T07:01:00.991Z,924.73
2024-01-03T07:02:01.534Z,924.76
2024-01-03T07:03:01.593Z,924.87
2024-01-03T07:04:02.660Z,924.93
2024-01-03T07:05:02.979Z,924.95
2024-01-03T07:06:04.124Z,925.03
2024-01-03T07:07:04.722Z,925.03
2024-01-03T07:08:05.524Z,924.89
2024-01-03T07:09:05.734Z,924.92
2024-01-03T07:10:06.480Z,924.92
2024-01-03T07:11:07.401Z,924.97
2024-01-03T07:12:08.377Z,924.92
2024-01-03T07:13:08.941Z,924.9
2024-01-03T07:14:09.470Z,924.88
2024-01-03T07:15:09.673Z,924.87
2024-01-03T07:16:10.650Z,924.88
2024-01-03T07:17:11.409Z,924.85
2024-01-03T07:18:12.369Z,924.9
2024-01-03T07:19:12.575Z,925.01
2024-01-03T07:20:12.979Z,925.02
2024-01-03T07:21:13.299Z,925.07
2024-01-03T07:22:14.324Z,925.12
2024-01-03T07:23:15.402Z,925.13
2024-01-03T07:24:15.723Z,925.22
2024-01-03T07:25:16.244Z,925.28
2024-01-03T07:26:17.189Z,925.27
2024-01-03T07:27:17.977Z,925.27
2024-01-03T07:28:18.518Z,925.31
2024-01-03T07:29:19.252Z,925.25
2024-01-03T07:30:20.162Z,925.26
2024-01-03T07:31:20.848Z,925.23
2024-01-03T07:32:21.553Z,925.28
2024-01-03T07:33:22.309Z,925.21
2024-01-03T07:34:22.986Z,925.29
2024-01-03T07:35:23.495Z,925.25
2024-01-03T07:36:24.275Z,925.28
2024-01-03T07:37:25.327Z,925.26
2024-01-03T07:38:26.056Z,925.25
2024-01-03T07:39:27.011Z,925.18
2024-01-03T07:40:27.955Z,925.18
2024-01-03T07:41:28.551Z,925.03
2024-01-03T07:42:28.916Z,925.01
2024-01-03T07:43:29.883Z,924.98
2024-01-03T07:44:30.428Z,925.15
2024-01-03T07:45:31.342Z,925.02
2024-01-03T07:46:32.064Z,924.92
2024-01-03T07:47:32.652Z,924.91
2024-01-03T07:48:33.431Z,925.02
2024-01-03T07:49:34.289Z,924.92
2024-01-03T07:50:34.661Z,924.97
2024-01-03T07:51:35.304Z,924.84
2024-01-03T07:52:35.468Z,924.83
2024-01-03T07:53:36.245Z,924.85
2024-01-03T07:54:37.174Z,924.9
2024-01-03T07:55:38.093Z,924.85
2024-01-03T07:56:38.586Z,924.92
2024-01-03T07:57:41.193Z,924.85
2024-01-03T07:58:39.455Z,924.87
2024-01-03T07:59:39.973Z,924.86
2024-01-03T08:00:40.756Z,924.87
2024-01-03T08:01:41.787Z,924.75
2024-01-03T08:02:42.448Z,924.67
2024-01-03T08:03:42.621Z,924.78
2024-01-03T08:04:43.461Z,924.8
2024-01-03T08:05:44.052Z,924.83
2024-01-03T08:06:44.854Z,924.82
2024-01-03T08:07:45.478Z,924.82
2024-01-03T08:08:46.231Z,924.88
2024-01-03T08:09:46.546Z,924.91
2024-01-03T08:10:47.279Z,924.84
2024-01-03T08:11:48.139Z,924.69
2024-01-03T08:12:51.417Z,924.74
2024-01-03T08:13:49.265Z,924.85
2024-01-03T08:14:49.830Z,924.85
2024-01-03T08:15:50.064Z,924.79
2024-01-03T08:16:50.785Z,924.8
2024-01-03T08:17:51.013Z,924.81
2024-01-03T08:18:51.750Z,924.77
2024-01-03T08:19:52.493Z,924.76
2024-01-03T08:20:53.502Z,924.86
2024-01-03T08:21:53.873Z,924.83
2024-01-03T08:22:54.722Z,924.78
2024-01-03T08:23:55.483Z,924.91
2024-01-03T08:24:56.289Z,924.94
2024-01-03T08:25:57.079Z,924.99
2024-01-03T08:26:57.796Z,925.02
2024-01-03T08:27:58.751Z,924.98
2024-01-03T08:28:59.797Z,925
2024-01-03T08:30:00.202Z,924.96
2024-01-03T08:31:01.186Z,924.93
2024-01-03T08:32:01.580Z,924.89
2024-01-03T08:33:01.999Z,924.84
2024-01-03T08:34:02.795Z,924.89
2024-01-03T08:35:03.367Z,924.88
2024-01-03T08:36:04.413Z,924.89
2024-01-03T08:37:04.508Z,924.98
2024-01-03T08:38:05.414Z,924.99
2024-01-03T08:39:06.156Z,925
2024-01-03T08:40:06.510Z,925.03
2024-01-03T08:41:07.041Z,925.05
2024-01-03T08:42:07.539Z,925.05
2024-01-03T08:43:07.585Z,925.03
2024-01-03T08:44:08.508Z,924.95
2024-01-03T08:45:09.580Z,924.99
2024-01-03T08:46:09.712Z,924.95
2024-01-03T08:47:10.021Z,924.95
2024-01-03T08:48:11.593Z,925.03
2024-01-03T08:49:12.184Z,925.05
2024-01-03T08:50:12.093Z,925.05
2024-01-03T08:51:13.123Z,925.09
2024-01-03T08:52:13.235Z,925.18
2024-01-03T08:53:13.438Z,925.15
2024-01-03T08:54:14.066Z,925.18
2024-01-03T08:55:14.201Z,925.13
2024-01-03T08:56:15.238Z,925.18
2024-01-03T08:57:16.178Z,925.22
2024-01-03T08:58:16.387Z,925.14
2024-01-03T08:59:16.531Z,925.16
2024-01-03T09:00:17.388Z,925.13
2024-01-03T09:01:17.612Z,925.14
2024-01-03T09:02:17.884Z,925.06
2024-01-03T09:03:18.388Z,924.97
2024-01-03T09:04:18.385Z,925.05
2024-01-03T09:05:19.067Z,925.09
2024-01-03T09:06:20.002Z,925.15
2024-01-03T09:07:19.912Z,925.15
2024-01-03T09:08:20.660Z,925.16
2024-01-03T09:09:21.608Z,925.04
2024-01-03T09:10:22.180Z,925.02
2024-01-03T09:11:22.720Z,925.05
2024-01-03T09:12:22.873Z,925.07
2024-01-03T09:13:23.478Z,925.02
2024-01-03T09:14:24.231Z,924.95
2024-01-03T09:15:25.136Z,924.92
2024-01-03T09:16:25.618Z,925.01
2024-01-03T09:17:25.956Z,925.04
2024-01-03T09:18:26.918Z,925
2024-01-03T09:19:27.196Z,924.99
2024-01-03T09:20:27.763Z,925.07
2024-01-03T09:21:28.734Z,924.99
2024-01-03T09:22:29.469Z,924.96
2024-01-03T09:23:30.547Z,924.89
2024-01-03T09:24:30.740Z,924.94
2024-01-03T09:25:30.945Z,924.89
2024-01-03T09:26:31.573Z,924.91
2024-01-03T09:27:32.630Z,924.91
2024-01-03T09:28:33.572Z,924.89
2024-01-03T09:29:34.118Z,924.91
2024-01-03T09:30:34.372Z,924.99
2024-01-03T09:31:35.287Z,924.98
2024-01-03T09:32:36.421Z,924.99
2024-01-03T09:33:37.291Z,924.93
2024-01-03T09:34:38.124Z,924.9
2024-01-03T09:35:38.270Z,924.8
2024-01-03T09:36:38.938Z,924.77
2024-01-03T09:37:39.802Z,924.82
2024-01-03T09:38:40.874Z,924.89
2024-01-03T09:39:41.827Z,924.87
2024-01-03T09:40:42.603Z,924.74
2024-01-03T09:41:43.644Z,924.83
2024-01-03T09:42:44.745Z,924.81
2024-01-03T09:43:45.218Z,924.69
2024-01-03T09:44:45.465Z,924.64
2024-01-03T09:45:45.576Z,924.69
2024-01-03T09:46:46.414Z,924.85
2024-01-03T09:47:47.277Z,924.88
2024-01-03T09:48:47.830Z,924.92
2024-01-03T09:49:48.294Z,924.8
2024-01-03T09:50:49.129Z,924.73
2024-01-03T09:51:49.295Z,924.73
2024-01-03T09:52:49.464Z,924.73
2024-01-03T09:53:49.655Z,924.78
2024-01-03T09:54:49.755Z,924.83
2024-01-03T09:55:50.210Z,924.85
2024-01-03T09:56:51.227Z,924.77
2024-01-03T09:57:51.623Z,924.65
2024-01-03T09:58:51.810Z,924.62
2024-01-03T09:59:52.771Z,924.66
2024-01-03T10:00:53.781Z,924.63
2024-01-03T10:01:54.007Z,924.61
2024-01-03T10:02:54.219Z,924.58
2024-01-03T10:03:54.971Z,924.61
2024-01-03T10:04:56.001Z,924.58
2024-01-03T10:05:56.707Z,924.6
2024-01-03T10:06:56.975Z,924.62
2024-01-03T10:07:57.122Z,924.61
2024-01-03T10:08:57.796Z,924.58
2024-01-03T10:09:58.134Z,924.49
2024-01-03T10:10:58.772Z,924.47
2024-01-03T10:11:59.532Z,924.45
2024-01-03T10:12:59.710Z,924.4
2024-01-03T10:14:00.745Z,924.38
2024-01-03T10:15:01.763Z,924.28
2024-01-03T10:16:02.251Z,924.3
2024-01-03T10:17:03.195Z,924.34
2024-01-03T10:18:04.296Z,924.38
2024-01-03T10:19:05.015Z,924.34
2024-01-03T10:20:05.094Z,924.43
2024-01-03T10:21:05.824Z,924.46
2024-01-03T10:22:06.288Z,924.41
2024-01-03T10:23:06.868Z,924.4
2024-01-03T10:24:07.181Z,924.41
2024-01-03T10:25:07.582Z,924.35
2024-01-03T10:26:08.207Z,924.38
2024-01-03T10:27:08.635Z,924.4
2024-01-03T10:28:09.658Z,924.34
2024-01-03T10:29:10.537Z,924.37
2024-01-03T10:30:10.928Z,924.32
2024-01-03T10:31:11.139Z,924.33
2024-01-03T10:32:11.384Z,924.27
2024-01-03T10:33:12.004Z,924.26
2024-01-03T10:34:12.896Z,924.29
2024-01-03T10:35:12.909Z,924.34
2024-01-03T10:36:13.700Z,924.35
2024-01-03T10:37:14.677Z,924.37
2024-01-03T10:38:15.635Z,924.45
2024-01-03T10:39:15.887Z,924.46
2024-01-03T10:40:17.676Z,924.44
2024-01-03T10:41:17.905Z,924.38
2024-01-03T10:42:18.137Z,924.38
2024-01-03T10:43:19.075Z,924.42
2024-01-03T10:44:20.095Z,924.42
2024-01-03T10:45:20.029Z,924.44
2024-01-03T10:46:20.395Z,924.41
2024-01-03T10:47:20.722Z,924.45
2024-01-03T10:48:21.773Z,924.56
2024-01-03T10:49:22.234Z,924.54
2024-01-03T10:50:22.753Z,924.49
2024-01-03T10:51:22.985Z,924.43
2024-01-03T10:52:23.784Z,924.49
2024-01-03T10:53:24.313Z,924.44
2024-01-03T10:54:24.455Z,924.42
2024-01-03T10:55:25.356Z,924.39
2024-01-03T10:56:26.014Z,924.35
2024-01-03T10:57:28.396Z,924.33
2024-01-03T10:58:27.645Z,924.41
2024-01-03T10:59:28.343Z,924.4
2024-01-03T11:00:29.253Z,924.48
2024-01-03T11:01:29.988Z,924.48
2024-01-03T11:02:30.573Z,924.55
2024-01-03T11:03:31.007Z,924.51
2024-01-03T11:04:32.330Z,924.49
2024-01-03T11:05:32.378Z,924.45
2024-01-03T11:06:33.160Z,924.45
2024-01-03T11:07:33.802Z,924.42
2024-01-03T11:08:33.968Z,924.36
2024-01-03T11:09:34.308Z,924.3
2024-01-03T11:10:35.017Z,924.28
2024-01-03T11:11:36.030Z,924.27
2024-01-03T11:12:36.156Z,924.26
2024-01-03T11:13:37.140Z,924.26
2024-01-03T11:14:38.142Z,924.19
2024-01-03T11:15:41.373Z,924.18
2024-01-03T11:16:38.770Z,924.15
2024-01-03T11:17:39.157Z,924.09
2024-01-03T11:18:39.804Z,924.12
2024-01-03T11:19:40.291Z,924.13
2024-01-03T11:20:40.350Z,924.12
2024-01-03T11:21:40.450Z,924.11
2024-01-03T11:22:41.175Z,924.01
2024-01-03T11:23:41.743Z,923.97
2024-01-03T11:24:42.201Z,923.89
2024-01-03T11:25:43.225Z,923.88
2024-01-03T11:26:43.548Z,923.84
2024-01-03T11:27:44.048Z,923.82
2024-01-03T11:28:44.955Z,923.86
2024-01-03T11:29:45.289Z,923.85
2024-01-03T11:30:46.018Z,923.88
2024-01-03T11:31:46.306Z,923.83
2024-01-03T11:32:47.887Z,923.82
2024-01-03T11:33:47.813Z,923.78
2024-01-03T11:34:48.655Z,923.87
2024-01-03T11:35:48.805Z,923.79
2024-01-03T11:36:49.877Z,923.83
2024-01-03T11:38:51.363Z,923.79
2024-01-03T11:39:52.351Z,923.87
2024-01-03T11:40:52.670Z,923.78
2024-01-03T11:41:53.651Z,923.77
2024-01-03T11:42:54.275Z,923.82
2024-01-03T11:43:54.957Z,923.81
2024-01-03T11:44:55.666Z,923.78
2024-01-03T11:45:56.245Z,923.72
2024-01-03T11:46:56.850Z,923.67
2024-01-03T11:47:57.416Z,923.57
2024-01-03T11:48:58.241Z,923.61
2024-01-03T11:49:58.571Z,923.59
2024-01-03T11:50:59.472Z,923.64
2024-01-03T11:52:00.281Z,923.59
2024-01-03T11:53:00.618Z,923.59
2024-01-03T11:54:00.744Z,923.64
2024-01-03T11:55:01.797Z,923.64
2024-01-03T11:56:02.176Z,923.64
2024-01-03T11:57:02.964Z,923.7
2024-01-03T11:58:03.481Z,923.64
2024-01-03T11:59:04.161Z,923.71
2024-01-03T12:00:04.473Z,923.68
2024-01-03T12:01:05.266Z,923.66
2024-01-03T12:02:05.966Z,923.72
2024-01-03T12:03:07.157Z,923.7
2024-01-03T12:04:07.147Z,923.59
2024-01-03T12:05:07.549Z,923.67
2024-01-03T12:06:08.379Z,923.59
2024-01-03T12:07:08.724Z,923.66
2024-01-03T12:08:08.697Z,923.68
2024-01-03T12:09:09.051Z,923.7
2024-01-03T12:10:09.244Z,923.7
2024-01-03T12:11:10.176Z,923.64
2024-01-03T12:12:10.387Z,923.66
2024-01-03T12:13:11.522Z,923.7
2024-01-03T12:14:12.368Z,923.66
2024-01-03T12:15:13.059Z,923.68
2024-01-03T12:16:13.816Z,923.68
2024-01-03T12:17:14.836Z,923.75
2024-01-03T12:18:15.292Z,923.74
2024-01-03T12:19:16.273Z,923.73
2024-01-03T12:20:16.661Z,923.65
2024-01-03T12:21:16.892Z,923.69
2024-01-03T12:22:17.439Z,923.68
2024-01-03T12:23:18.058Z,923.71
2024-01-03T12:24:18.750Z,923.64
2024-01-03T12:25:19.827Z,923.64
2024-01-03T12:26:20.803Z,923.62
2024-01-03T12:27:21.449Z,923.65
2024-01-03T12:28:22.034Z,923.68
2024-01-03T12:29:22.846Z,923.67
2024-01-03T12:30:23.884Z,923.7
2024-01-03T12:31:24.364Z,923.63
2024-01-03T12:32:24.742Z,923.69
2024-01-03T12:33:25.942Z,923.64
2024-01-03T12:34:26.921Z,923.6
2024-01-03T12:35:27.306Z,923.65
2024-01-03T12:36:27.527Z,923.72
2024-01-03T12:37:27.952Z,923.69
2024-01-03T12:38:28.364Z,923.69
2024-01-03T12:39:29.333Z,923.7
2024-01-03T12:40:30.195Z,923.7